sensor_id;sensor_type;location;lat;lon;timestamp;pressure;altitude;pressure_sealevel;temperature;humidity
28008;BME280;15333;50.010;20.020;2023-02-11T00:01:50;100483.41;;;-1.49;86.07
28008;BME280;15333;50.010;20.020;2023-02-11T00:04:51;100487.78;;;-1.55;85.93
28008;BME280;15333;50.010;20.020;2023-02-11T00:07:52;100487.78;;;-1.63;86.38
28008;BME280;15333;50.010;20.020;2023-02-11T00:10:56;100490.41;;;-1.75;87.98
28008;BME280;15333;50.010;20.020;2023-02-11T00:13:59;100477.28;;;-1.78;88.28
28008;BME280;15333;50.010;20.020;2023-02-11T00:17:00;100479.00;;;-1.89;88.88
28008;BME280;15333;50.010;20.020;2023-02-11T00:20:02;100481.63;;;-1.95;89.62
28008;BME280;15333;50.010;20.020;2023-02-11T00:23:03;100477.28;;;-1.92;89.34
28008;BME280;15333;50.010;20.020;2023-02-11T00:26:11;100469.34;;;-2.06;90.19
28008;BME280;15333;50.010;20.020;2023-02-11T00:29:14;100459.75;;;-1.96;89.05
28008;BME280;15333;50.010;20.020;2023-02-11T00:32:15;100455.41;;;-1.89;88.55
28008;BME280;15333;50.010;20.020;2023-02-11T00:35:16;100456.28;;;-1.93;88.05
28008;BME280;15333;50.010;20.020;2023-02-11T00:38:17;100449.25;;;-1.98;87.78
28008;BME280;15333;50.010;20.020;2023-02-11T00:41:19;100443.16;;;-1.90;87.61
28008;BME280;15333;50.010;20.020;2023-02-11T00:44:20;100444.91;;;-1.95;88.21
28008;BME280;15333;50.010;20.020;2023-02-11T00:47:22;100446.66;;;-1.88;86.41
28008;BME280;15333;50.010;20.020;2023-02-11T00:50:23;100437.91;;;-1.84;86.39
28008;BME280;15333;50.010;20.020;2023-02-11T00:53:24;100440.53;;;-1.89;85.79
28008;BME280;15333;50.010;20.020;2023-02-11T00:56:25;100430.91;;;-1.91;85.66
28008;BME280;15333;50.010;20.020;2023-02-11T00:59:26;100427.44;;;-1.92;86.06
28008;BME280;15333;50.010;20.020;2023-02-11T01:02:27;100413.44;;;-1.89;86.16
28008;BME280;15333;50.010;20.020;2023-02-11T01:05:28;100409.94;;;-1.85;84.95
28008;BME280;15333;50.010;20.020;2023-02-11T01:08:29;100408.19;;;-1.76;84.24
28008;BME280;15333;50.010;20.020;2023-02-11T01:11:30;100393.31;;;-1.69;83.68
28008;BME280;15333;50.010;20.020;2023-02-11T01:14:31;100388.91;;;-1.55;82.42
28008;BME280;15333;50.010;20.020;2023-02-11T01:17:33;100365.31;;;-1.64;82.21
28008;BME280;15333;50.010;20.020;2023-02-11T01:20:34;100362.66;;;-1.63;83.13
28008;BME280;15333;50.010;20.020;2023-02-11T01:23:35;100355.72;;;-1.71;82.63
28008;BME280;15333;50.010;20.020;2023-02-11T01:26:36;100342.59;;;-1.88;83.99
28008;BME280;15333;50.010;20.020;2023-02-11T01:29:37;100346.97;;;-1.85;84.23
28008;BME280;15333;50.010;20.020;2023-02-11T01:32:38;100349.59;;;-1.90;84.09
28008;BME280;15333;50.010;20.020;2023-02-11T01:35:39;100352.19;;;-1.91;83.95
28008;BME280;15333;50.010;20.020;2023-02-11T01:38:41;100351.34;;;-1.93;84.08
28008;BME280;15333;50.010;20.020;2023-02-11T01:41:43;100350.47;;;-1.95;84.34
28008;BME280;15333;50.010;20.020;2023-02-11T01:44:45;100333.00;;;-1.93;83.67
28008;BME280;15333;50.010;20.020;2023-02-11T01:47:45;100331.22;;;-1.82;83.98
28008;BME280;15333;50.010;20.020;2023-02-11T01:50:50;100328.59;;;-1.79;83.78
28008;BME280;15333;50.010;20.020;2023-02-11T01:53:53;100331.22;;;-1.82;82.71
28008;BME280;15333;50.010;20.020;2023-02-11T01:57:15;100328.59;;;-1.84;83.19
28008;BME280;15333;50.010;20.020;2023-02-11T02:03:30;100300.63;;;-1.89;83.24
28008;BME280;15333;50.010;20.020;2023-02-11T02:06:37;100285.78;;;-1.93;84.03
28008;BME280;15333;50.010;20.020;2023-02-11T02:09:44;100290.97;;;-1.84;83.49
28008;BME280;15333;50.010;20.020;2023-02-11T02:12:48;100293.63;;;-1.78;83.31
28008;BME280;15333;50.010;20.020;2023-02-11T02:16:00;100293.59;;;-1.71;82.97
28008;BME280;15333;50.010;20.020;2023-02-11T02:19:33;100297.06;;;-1.70;81.55
28008;BME280;15333;50.010;20.020;2023-02-11T02:23:23;100299.72;;;-1.73;82.37
28008;BME280;15333;50.010;20.020;2023-02-11T02:36:06;100301.47;;;-1.66;81.62
28008;BME280;15333;50.010;20.020;2023-02-11T02:39:20;100302.31;;;-1.60;81.21
28008;BME280;15333;50.010;20.020;2023-02-11T02:42:23;100314.56;;;-1.59;82.28
28008;BME280;15333;50.010;20.020;2023-02-11T02:45:25;100306.66;;;-1.54;81.30
28008;BME280;15333;50.010;20.020;2023-02-11T02:48:33;100294.41;;;-1.52;81.46
28008;BME280;15333;50.010;20.020;2023-02-11T02:58:19;100262.09;;;-1.66;82.55
28008;BME280;15333;50.010;20.020;2023-02-11T03:02:04;100256.78;;;-1.51;82.00
28008;BME280;15333;50.010;20.020;2023-02-11T03:08:40;100250.59;;;-1.35;82.07
28008;BME280;15333;50.010;20.020;2023-02-11T03:11:42;100252.38;;;-1.37;81.00
28008;BME280;15333;50.010;20.020;2023-02-11T03:14:43;100238.38;;;-1.36;81.02
28008;BME280;15333;50.010;20.020;2023-02-11T03:17:47;100224.28;;;-1.23;81.33
28008;BME280;15333;50.010;20.020;2023-02-11T03:20:52;100218.13;;;-1.15;80.58
28008;BME280;15333;50.010;20.020;2023-02-11T03:23:55;100189.19;;;-1.12;79.72
28008;BME280;15333;50.010;20.020;2023-02-11T03:27:02;100178.69;;;-1.09;79.66
28008;BME280;15333;50.010;20.020;2023-02-11T03:30:20;100158.56;;;-1.13;80.41
28008;BME280;15333;50.010;20.020;2023-02-11T03:33:34;100154.13;;;-1.02;79.42
28008;BME280;15333;50.010;20.020;2023-02-11T03:36:48;100147.97;;;-1.01;79.24
28008;BME280;15333;50.010;20.020;2023-02-11T03:40:00;100136.59;;;-1.02;79.92
28008;BME280;15333;50.010;20.020;2023-02-11T03:43:15;100131.25;;;-0.88;78.77
28008;BME280;15333;50.010;20.020;2023-02-11T03:46:20;100134.69;;;-0.80;78.03
28008;BME280;15333;50.010;20.020;2023-02-11T03:49:24;100130.25;;;-0.75;79.33
28008;BME280;15333;50.010;20.020;2023-02-11T03:52:26;100124.06;;;-0.69;77.55
28008;BME280;15333;50.010;20.020;2023-02-11T03:55:29;100120.50;;;-0.64;79.16
28008;BME280;15333;50.010;20.020;2023-02-11T03:58:31;100120.50;;;-0.64;78.81
28008;BME280;15333;50.010;20.020;2023-02-11T04:01:32;100121.34;;;-0.62;78.57
28008;BME280;15333;50.010;20.020;2023-02-11T04:04:33;100116.84;;;-0.48;77.93
28008;BME280;15333;50.010;20.020;2023-02-11T04:07:34;100118.59;;;-0.45;78.11
28008;BME280;15333;50.010;20.020;2023-02-11T04:10:35;100102.75;;;-0.39;78.34
28008;BME280;15333;50.010;20.020;2023-02-11T04:13:35;100101.81;;;-0.35;78.01
28008;BME280;15333;50.010;20.020;2023-02-11T04:16:36;100099.22;;;-0.36;77.97
28008;BME280;15333;50.010;20.020;2023-02-11T04:19:37;100093.91;;;-0.33;78.64
28008;BME280;15333;50.010;20.020;2023-02-11T04:22:38;100086.09;;;-0.41;78.54
28008;BME280;15333;50.010;20.020;2023-02-11T04:25:39;100069.38;;;-0.35;78.55
28008;BME280;15333;50.010;20.020;2023-02-11T04:28:40;100074.63;;;-0.32;78.75
28008;BME280;15333;50.010;20.020;2023-02-11T04:31:41;100059.81;;;-0.41;79.25
28008;BME280;15333;50.010;20.020;2023-02-11T04:34:42;100058.97;;;-0.45;78.48
28008;BME280;15333;50.010;20.020;2023-02-11T04:37:43;100046.72;;;-0.46;79.87
28008;BME280;15333;50.010;20.020;2023-02-11T04:40:44;100047.50;;;-0.39;79.38
28008;BME280;15333;50.010;20.020;2023-02-11T04:43:45;100039.78;;;-0.53;78.96
28008;BME280;15333;50.010;20.020;2023-02-11T04:46:46;100049.28;;;-0.41;79.31
28008;BME280;15333;50.010;20.020;2023-02-11T04:49:46;100035.31;;;-0.45;79.71
28008;BME280;15333;50.010;20.020;2023-02-11T04:52:47;100038.69;;;-0.33;79.91
28008;BME280;15333;50.010;20.020;2023-02-11T04:55:48;100040.41;;;-0.32;80.08
28008;BME280;15333;50.010;20.020;2023-02-11T04:58:52;100037.69;;;-0.23;78.72
28008;BME280;15333;50.010;20.020;2023-02-11T05:01:53;100048.94;;;-0.11;78.81
28008;BME280;15333;50.010;20.020;2023-02-11T05:04:54;100045.41;;;-0.08;78.68
28008;BME280;15333;50.010;20.020;2023-02-11T05:07:55;100056.81;;;-0.09;77.93
28008;BME280;15333;50.010;20.020;2023-02-11T05:10:57;100079.69;;;-0.17;79.71
28008;BME280;15333;50.010;20.020;2023-02-11T05:13:58;100065.66;;;-0.16;79.88
28008;BME280;15333;50.010;20.020;2023-02-11T05:16:59;100048.28;;;-0.29;80.29
28008;BME280;15333;50.010;20.020;2023-02-11T05:19:59;100056.03;;;-0.20;79.35
28008;BME280;15333;50.010;20.020;2023-02-11T05:23:00;100059.59;;;-0.23;79.72
28008;BME280;15333;50.010;20.020;2023-02-11T05:26:02;100050.91;;;-0.29;79.94
28008;BME280;15333;50.010;20.020;2023-02-11T05:29:03;100050.00;;;-0.28;79.71
28008;BME280;15333;50.010;20.020;2023-02-11T05:32:04;100042.19;;;-0.34;80.93
28008;BME280;15333;50.010;20.020;2023-02-11T05:35:05;100046.63;;;-0.36;79.17
28008;BME280;15333;50.010;20.020;2023-02-11T05:38:06;100037.81;;;-0.35;80.60
28008;BME280;15333;50.010;20.020;2023-02-11T05:41:07;100050.91;;;-0.29;79.99
28008;BME280;15333;50.010;20.020;2023-02-11T05:44:08;100057.06;;;-0.30;80.71
28008;BME280;15333;50.010;20.020;2023-02-11T05:47:09;100055.41;;;-0.37;79.50
28008;BME280;15333;50.010;20.020;2023-02-11T05:50:10;100055.50;;;-0.50;79.82
28008;BME280;15333;50.010;20.020;2023-02-11T05:53:11;100059.16;;;-0.63;81.51
28008;BME280;15333;50.010;20.020;2023-02-11T05:56:12;100061.69;;;-0.52;81.07
28008;BME280;15333;50.010;20.020;2023-02-11T05:59:14;100071.25;;;-0.47;80.95
28008;BME280;15333;50.010;20.020;2023-02-11T06:02:15;100069.66;;;-0.63;81.58
28008;BME280;15333;50.010;20.020;2023-02-11T06:05:16;100086.31;;;-0.62;82.38
28008;BME280;15333;50.010;20.020;2023-02-11T06:08:17;100093.38;;;-0.67;81.66
28008;BME280;15333;50.010;20.020;2023-02-11T06:11:18;100089.00;;;-0.68;83.06
28008;BME280;15333;50.010;20.020;2023-02-11T06:14:19;100067.91;;;-0.64;81.70
28008;BME280;15333;50.010;20.020;2023-02-11T06:17:20;100064.25;;;-0.48;81.56
28008;BME280;15333;50.010;20.020;2023-02-11T06:20:22;100040.75;;;-0.63;83.18
28008;BME280;15333;50.010;20.020;2023-02-11T06:23:23;100006.56;;;-0.63;83.21
28008;BME280;15333;50.010;20.020;2023-02-11T06:26:24;99965.53;;;-0.71;83.16
28008;BME280;15333;50.010;20.020;2023-02-11T06:29:25;99929.69;;;-0.80;83.08
28008;BME280;15333;50.010;20.020;2023-02-11T06:32:27;99910.25;;;-0.67;82.94
28008;BME280;15333;50.010;20.020;2023-02-11T06:35:28;99924.81;;;-0.42;82.33
28008;BME280;15333;50.010;20.020;2023-02-11T06:38:29;99939.50;;;-0.25;81.16
28008;BME280;15333;50.010;20.020;2023-02-11T06:41:31;99942.84;;;-0.14;78.89
28008;BME280;15333;50.010;20.020;2023-02-11T06:44:31;99945.31;;;-0.01;79.47
28008;BME280;15333;50.010;20.020;2023-02-11T06:47:32;99944.38;;;0.02;79.22
28008;BME280;15333;50.010;20.020;2023-02-11T06:50:33;99960.84;;;0.15;77.32
28008;BME280;15333;50.010;20.020;2023-02-11T06:53:36;99947.53;;;0.27;76.87
28008;BME280;15333;50.010;20.020;2023-02-11T06:56:39;99949.03;;;0.42;76.44
28008;BME280;15333;50.010;20.020;2023-02-11T06:59:41;99962.13;;;0.46;76.42
28008;BME280;15333;50.010;20.020;2023-02-11T07:02:42;99957.53;;;0.59;75.06
28008;BME280;15333;50.010;20.020;2023-02-11T07:05:43;99966.94;;;0.73;73.51
28008;BME280;15333;50.010;20.020;2023-02-11T07:08:44;99971.34;;;0.73;74.28
28008;BME280;15333;50.010;20.020;2023-02-11T07:11:45;99966.81;;;0.81;73.45
28008;BME280;15333;50.010;20.020;2023-02-11T07:14:46;99973.84;;;0.79;73.70
28008;BME280;15333;50.010;20.020;2023-02-11T07:17:47;99971.94;;;0.89;73.14
28008;BME280;15333;50.010;20.020;2023-02-11T07:20:48;99981.34;;;1.03;73.72
28008;BME280;15333;50.010;20.020;2023-02-11T07:23:49;99983.31;;;0.92;72.87
28008;BME280;15333;50.010;20.020;2023-02-11T07:26:52;99988.34;;;1.04;72.29
28008;BME280;15333;50.010;20.020;2023-02-11T07:29:53;99977.22;;;0.89;73.22
28008;BME280;15333;50.010;20.020;2023-02-11T07:32:55;99965.66;;;0.97;73.49
28008;BME280;15333;50.010;20.020;2023-02-11T07:35:59;99954.13;;;1.01;73.86
28008;BME280;15333;50.010;20.020;2023-02-11T07:39:00;99955.16;;;0.94;74.21
28008;BME280;15333;50.010;20.020;2023-02-11T07:42:02;99940.59;;;0.72;74.47
28008;BME280;15333;50.010;20.020;2023-02-11T07:45:03;99932.50;;;0.84;73.86
28008;BME280;15333;50.010;20.020;2023-02-11T07:48:05;99927.34;;;0.78;75.01
28008;BME280;15333;50.010;20.020;2023-02-11T07:51:14;99923.78;;;0.79;74.18
28008;BME280;15333;50.010;20.020;2023-02-11T07:54:16;99930.66;;;0.89;73.29
28008;BME280;15333;50.010;20.020;2023-02-11T07:57:16;99928.13;;;0.83;73.88
28008;BME280;15333;50.010;20.020;2023-02-11T08:00:18;99937.66;;;0.90;73.19
28008;BME280;15333;50.010;20.020;2023-02-11T08:03:18;99929.13;;;0.76;73.75
28008;BME280;15333;50.010;20.020;2023-02-11T08:06:21;99936.06;;;0.80;73.86
28008;BME280;15333;50.010;20.020;2023-02-11T08:09:23;99928.88;;;0.91;73.70
28008;BME280;15333;50.010;20.020;2023-02-11T08:12:24;99931.38;;;0.97;74.03
28008;BME280;15333;50.010;20.020;2023-02-11T08:15:25;99935.91;;;0.89;74.52
28008;BME280;15333;50.010;20.020;2023-02-11T08:18:26;99934.06;;;0.94;74.55
28008;BME280;15333;50.010;20.020;2023-02-11T08:21:27;99931.69;;;0.81;74.95
28008;BME280;15333;50.010;20.020;2023-02-11T08:24:28;99925.50;;;0.82;74.02
28008;BME280;15333;50.010;20.020;2023-02-11T08:27:30;99927.78;;;1.01;73.63
28008;BME280;15333;50.010;20.020;2023-02-11T08:30:31;99928.34;;;1.18;72.65
28008;BME280;15333;50.010;20.020;2023-02-11T08:33:32;99917.50;;;1.34;72.05
28008;BME280;15333;50.010;20.020;2023-02-11T08:36:35;99920.94;;;1.36;71.16
28008;BME280;15333;50.010;20.020;2023-02-11T08:39:36;99919.09;;;1.41;71.54
28008;BME280;15333;50.010;20.020;2023-02-11T08:42:38;99916.59;;;1.35;71.09
28008;BME280;15333;50.010;20.020;2023-02-11T08:45:39;99922.44;;;1.49;71.12
28008;BME280;15333;50.010;20.020;2023-02-11T08:48:40;99923.38;;;1.46;70.71
28008;BME280;15333;50.010;20.020;2023-02-11T08:51:41;99924.81;;;1.63;70.25
28008;BME280;15333;50.010;20.020;2023-02-11T08:54:42;99924.69;;;1.67;69.37
28008;BME280;15333;50.010;20.020;2023-02-11T08:57:43;99927.72;;;1.89;68.36
28008;BME280;15333;50.010;20.020;2023-02-11T09:00:44;99924.78;;;2.03;68.18
28008;BME280;15333;50.010;20.020;2023-02-11T09:03:45;99916.66;;;2.12;67.63
28008;BME280;15333;50.010;20.020;2023-02-11T09:06:46;99916.88;;;2.38;66.42
28008;BME280;15333;50.010;20.020;2023-02-11T09:09:47;99921.69;;;2.56;66.03
28008;BME280;15333;50.010;20.020;2023-02-11T09:12:48;99917.25;;;2.58;65.63
28008;BME280;15333;50.010;20.020;2023-02-11T09:15:49;99916.09;;;2.70;64.71
28008;BME280;15333;50.010;20.020;2023-02-11T09:18:50;99912.03;;;2.91;64.75
28008;BME280;15333;50.010;20.020;2023-02-11T09:21:51;99910.75;;;3.05;63.58
28008;BME280;15333;50.010;20.020;2023-02-11T09:24:52;99901.97;;;3.34;62.44
28008;BME280;15333;50.010;20.020;2023-02-11T09:27:53;99901.34;;;3.55;62.41
28008;BME280;15333;50.010;20.020;2023-02-11T09:30:54;99891.09;;;4.02;59.86
28008;BME280;15333;50.010;20.020;2023-02-11T09:33:58;99896.28;;;4.05;59.75
28008;BME280;15333;50.010;20.020;2023-02-11T09:37:00;99904.66;;;4.19;59.77
28008;BME280;15333;50.010;20.020;2023-02-11T09:40:01;99917.13;;;4.17;59.25
28008;BME280;15333;50.010;20.020;2023-02-11T09:43:12;99898.59;;;4.44;59.29
28008;BME280;15333;50.010;20.020;2023-02-11T09:46:17;99904.75;;;4.44;59.49
28008;BME280;15333;50.010;20.020;2023-02-11T09:49:43;99910.81;;;4.48;58.02
28008;BME280;15333;50.010;20.020;2023-02-11T09:56:00;99923.75;;;4.30;58.75
28008;BME280;15333;50.010;20.020;2023-02-11T09:59:01;99908.75;;;4.29;58.72
28008;BME280;15333;50.010;20.020;2023-02-11T10:02:16;99904.38;;;4.28;59.16
28008;BME280;15333;50.010;20.020;2023-02-11T10:16:08;99887.16;;;4.68;57.39
28008;BME280;15333;50.010;20.020;2023-02-11T10:22:45;99885.78;;;4.30;57.38
28008;BME280;15333;50.010;20.020;2023-02-11T10:25:51;99863.16;;;4.20;57.61
28008;BME280;15333;50.010;20.020;2023-02-11T10:28:55;99861.31;;;4.22;58.46
28008;BME280;15333;50.010;20.020;2023-02-11T10:32:00;99861.97;;;4.28;57.95
28008;BME280;15333;50.010;20.020;2023-02-11T10:35:13;99863.81;;;4.53;58.09
28008;BME280;15333;50.010;20.020;2023-02-11T10:38:14;99854.22;;;4.49;57.98
28008;BME280;15333;50.010;20.020;2023-02-11T10:41:23;99854.94;;;4.27;59.23
28008;BME280;15333;50.010;20.020;2023-02-11T10:47:35;99829.59;;;4.47;58.12
28008;BME280;15333;50.010;20.020;2023-02-11T10:50:37;99821.63;;;4.47;59.15
28008;BME280;15333;50.010;20.020;2023-02-11T10:53:38;99812.88;;;4.18;58.89
28008;BME280;15333;50.010;20.020;2023-02-11T10:56:48;99805.44;;;4.29;59.07
28008;BME280;15333;50.010;20.020;2023-02-11T10:59:50;99781.28;;;4.39;58.78
28008;BME280;15333;50.010;20.020;2023-02-11T11:02:59;99775.84;;;4.42;58.22
28008;BME280;15333;50.010;20.020;2023-02-11T11:06:03;99776.06;;;4.36;58.04
28008;BME280;15333;50.010;20.020;2023-02-11T11:09:04;99751.66;;;4.76;57.30
28008;BME280;15333;50.010;20.020;2023-02-11T11:12:23;99750.81;;;4.75;57.63
28008;BME280;15333;50.010;20.020;2023-02-11T11:15:27;99748.09;;;5.23;56.44
28008;BME280;15333;50.010;20.020;2023-02-11T11:18:28;99720.06;;;5.16;55.87
28008;BME280;15333;50.010;20.020;2023-02-11T11:21:35;99711.91;;;5.21;56.75
28008;BME280;15333;50.010;20.020;2023-02-11T11:24:44;99705.00;;;5.17;56.77
28008;BME280;15333;50.010;20.020;2023-02-11T11:27:50;99713.53;;;5.25;56.32
28008;BME280;15333;50.010;20.020;2023-02-11T11:30:55;99725.03;;;5.47;55.99
28008;BME280;15333;50.010;20.020;2023-02-11T11:33:59;99720.66;;;5.89;55.53
28008;BME280;15333;50.010;20.020;2023-02-11T11:37:19;99715.16;;;5.94;54.68
28008;BME280;15333;50.010;20.020;2023-02-11T11:40:22;99726.78;;;6.12;53.96
28008;BME280;15333;50.010;20.020;2023-02-11T11:43:24;99708.97;;;5.94;53.06
28008;BME280;15333;50.010;20.020;2023-02-11T11:46:31;99707.56;;;5.83;53.48
28008;BME280;15333;50.010;20.020;2023-02-11T11:50:13;99691.28;;;5.93;53.35
28008;BME280;15333;50.010;20.020;2023-02-11T11:54:19;99708.16;;;5.92;53.60
28008;BME280;15333;50.010;20.020;2023-02-11T11:57:01;99727.19;;;5.81;53.95
28008;BME280;15333;50.010;20.020;2023-02-11T12:00:04;99728.41;;;5.29;55.36
28008;BME280;15333;50.010;20.020;2023-02-11T12:07:00;99720.09;;;5.38;55.32
28008;BME280;15333;50.010;20.020;2023-02-11T12:10:40;99711.38;;;5.34;55.02
28008;BME280;15333;50.010;20.020;2023-02-11T12:17:55;99728.56;;;5.02;56.06
28008;BME280;15333;50.010;20.020;2023-02-11T12:24:37;99735.34;;;5.09;56.68
28008;BME280;15333;50.010;20.020;2023-02-11T12:31:16;99765.94;;;4.96;57.92
28008;BME280;15333;50.010;20.020;2023-02-11T12:43:48;99722.09;;;4.86;62.27
28008;BME280;15333;50.010;20.020;2023-02-11T12:47:07;99719.31;;;4.66;63.38
28008;BME280;15333;50.010;20.020;2023-02-11T12:50:19;99723.66;;;4.68;63.64
28008;BME280;15333;50.010;20.020;2023-02-11T12:57:15;99696.97;;;4.48;64.91
28008;BME280;15333;50.010;20.020;2023-02-11T13:00:28;99677.00;;;4.40;66.31
28008;BME280;15333;50.010;20.020;2023-02-11T13:03:35;99672.22;;;4.49;65.68
28008;BME280;15333;50.010;20.020;2023-02-11T13:07:11;99658.31;;;4.43;66.35
28008;BME280;15333;50.010;20.020;2023-02-11T13:10:19;99672.06;;;4.29;66.91
28008;BME280;15333;50.010;20.020;2023-02-11T13:13:26;99677.41;;;4.27;66.72
28008;BME280;15333;50.010;20.020;2023-02-11T13:16:42;99666.78;;;4.29;67.10
28008;BME280;15333;50.010;20.020;2023-02-11T13:19:53;99662.44;;;4.26;67.11
28008;BME280;15333;50.010;20.020;2023-02-11T13:23:10;99669.25;;;4.33;67.21
28008;BME280;15333;50.010;20.020;2023-02-11T13:26:22;99669.25;;;4.33;67.87
28008;BME280;15333;50.010;20.020;2023-02-11T13:29:41;99666.78;;;4.29;68.89
28008;BME280;15333;50.010;20.020;2023-02-11T13:39:05;99619.22;;;4.26;71.56
28008;BME280;15333;50.010;20.020;2023-02-11T13:42:14;99614.97;;;4.20;73.51
28008;BME280;15333;50.010;20.020;2023-02-11T13:48:32;99600.22;;;4.13;73.58
28008;BME280;15333;50.010;20.020;2023-02-11T13:51:37;99586.03;;;4.16;74.43
28008;BME280;15333;50.010;20.020;2023-02-11T13:54:39;99551.31;;;4.23;74.74
28008;BME280;15333;50.010;20.020;2023-02-11T13:57:40;99568.41;;;4.15;74.31
28008;BME280;15333;50.010;20.020;2023-02-11T14:04:25;99605.75;;;4.07;75.25
28008;BME280;15333;50.010;20.020;2023-02-11T14:08:13;99612.84;;;4.07;75.73
28008;BME280;15333;50.010;20.020;2023-02-11T14:14:58;99618.41;;;3.99;75.27
28008;BME280;15333;50.010;20.020;2023-02-11T14:17:59;99621.06;;;3.99;74.71
28008;BME280;15333;50.010;20.020;2023-02-11T14:30:47;99675.81;;;3.99;75.64
28008;BME280;15333;50.010;20.020;2023-02-11T14:43:28;99677.16;;;3.85;77.19
28008;BME280;15333;50.010;20.020;2023-02-11T14:46:32;99688.81;;;3.80;77.73
28008;BME280;15333;50.010;20.020;2023-02-11T14:49:36;99682.78;;;3.76;77.53
28008;BME280;15333;50.010;20.020;2023-02-11T14:52:40;99683.72;;;3.74;78.35
28008;BME280;15333;50.010;20.020;2023-02-11T14:55:46;99678.28;;;3.78;78.29
28008;BME280;15333;50.010;20.020;2023-02-11T14:58:53;99671.31;;;3.76;77.80
28008;BME280;15333;50.010;20.020;2023-02-11T15:01:54;99668.59;;;3.77;77.79
28008;BME280;15333;50.010;20.020;2023-02-11T15:05:19;99673.16;;;3.74;78.37
28008;BME280;15333;50.010;20.020;2023-02-11T15:08:20;99672.22;;;3.75;78.63
28008;BME280;15333;50.010;20.020;2023-02-11T15:11:23;99669.97;;;3.63;79.08
28008;BME280;15333;50.010;20.020;2023-02-11T15:17:30;99682.63;;;3.54;80.53
28008;BME280;15333;50.010;20.020;2023-02-11T15:20:32;99693.38;;;3.48;82.50
28008;BME280;15333;50.010;20.020;2023-02-11T15:23:34;99696.44;;;3.36;83.86
28008;BME280;15333;50.010;20.020;2023-02-11T15:26:36;99702.84;;;3.29;83.79
28008;BME280;15333;50.010;20.020;2023-02-11T15:29:40;99697.03;;;3.18;86.50
28008;BME280;15333;50.010;20.020;2023-02-11T15:32:42;99695.38;;;3.14;86.71
28008;BME280;15333;50.010;20.020;2023-02-11T15:35:44;99698.13;;;3.11;87.18
28008;BME280;15333;50.010;20.020;2023-02-11T15:39:18;99700.13;;;3.03;89.02
28008;BME280;15333;50.010;20.020;2023-02-11T15:42:29;99705.91;;;2.86;92.45
28008;BME280;15333;50.010;20.020;2023-02-11T15:45:41;99721.09;;;2.80;96.34
28008;BME280;15333;50.010;20.020;2023-02-11T15:48:54;99726.13;;;2.58;100.00
28008;BME280;15333;50.010;20.020;2023-02-11T15:51:55;99722.97;;;2.45;100.00
28008;BME280;15333;50.010;20.020;2023-02-11T15:54:59;99715.31;;;2.36;100.00
28008;BME280;15333;50.010;20.020;2023-02-11T15:58:01;99716.38;;;2.29;100.00
28008;BME280;15333;50.010;20.020;2023-02-11T16:01:03;99713.06;;;2.21;100.00
28008;BME280;15333;50.010;20.020;2023-02-11T16:04:04;99724.63;;;2.17;100.00
28008;BME280;15333;50.010;20.020;2023-02-11T16:07:05;99730.81;;;2.16;100.00
28008;BME280;15333;50.010;20.020;2023-02-11T16:10:18;99721.28;;;2.10;100.00
28008;BME280;15333;50.010;20.020;2023-02-11T16:13:19;99721.44;;;2.06;100.00
28008;BME280;15333;50.010;20.020;2023-02-11T16:16:22;99718.03;;;2.01;100.00
28008;BME280;15333;50.010;20.020;2023-02-11T16:19:25;99714.50;;;2.00;100.00
28008;BME280;15333;50.010;20.020;2023-02-11T16:22:28;99725.94;;;2.01;100.00
28008;BME280;15333;50.010;20.020;2023-02-11T16:25:30;99734.84;;;1.96;100.00
28008;BME280;15333;50.010;20.020;2023-02-11T16:28:35;99750.69;;;1.96;100.00
28008;BME280;15333;50.010;20.020;2023-02-11T16:31:40;99732.25;;;1.95;100.00
28008;BME280;15333;50.010;20.020;2023-02-11T16:34:41;99727.84;;;1.95;100.00
28008;BME280;15333;50.010;20.020;2023-02-11T16:37:42;99736.66;;;1.94;100.00
28008;BME280;15333;50.010;20.020;2023-02-11T16:40:43;99738.47;;;1.92;100.00
28008;BME280;15333;50.010;20.020;2023-02-11T16:43:48;99736.75;;;1.91;100.00
28008;BME280;15333;50.010;20.020;2023-02-11T16:46:49;99747.31;;;1.91;100.00
28008;BME280;15333;50.010;20.020;2023-02-11T16:49:51;99742.03;;;1.91;100.00
28008;BME280;15333;50.010;20.020;2023-02-11T16:52:52;99742.81;;;1.95;100.00
28008;BME280;15333;50.010;20.020;2023-02-11T16:55:53;99754.19;;;1.99;100.00
28008;BME280;15333;50.010;20.020;2023-02-11T16:58:54;99752.44;;;1.98;100.00
28008;BME280;15333;50.010;20.020;2023-02-11T17:01:56;99749.78;;;1.98;100.00
28008;BME280;15333;50.010;20.020;2023-02-11T17:04:59;99757.63;;;2.01;100.00
28008;BME280;15333;50.010;20.020;2023-02-11T17:08:00;99763.75;;;2.03;100.00
28008;BME280;15333;50.010;20.020;2023-02-11T17:11:03;99748.72;;;2.05;100.00
28008;BME280;15333;50.010;20.020;2023-02-11T17:14:04;99748.63;;;2.08;100.00
28008;BME280;15333;50.010;20.020;2023-02-11T17:17:05;99746.00;;;2.08;100.00
28008;BME280;15333;50.010;20.020;2023-02-11T17:20:06;99754.88;;;2.05;100.00
28008;BME280;15333;50.010;20.020;2023-02-11T17:23:08;99767.16;;;2.06;100.00
28008;BME280;15333;50.010;20.020;2023-02-11T17:26:10;99783.78;;;2.10;100.00
28008;BME280;15333;50.010;20.020;2023-02-11T17:29:13;99771.44;;;2.12;100.00
28008;BME280;15333;50.010;20.020;2023-02-11T17:32:15;99767.78;;;2.16;100.00
28008;BME280;15333;50.010;20.020;2023-02-11T17:35:16;99782.00;;;2.12;100.00
28008;BME280;15333;50.010;20.020;2023-02-11T17:38:17;99775.84;;;2.11;100.00
28008;BME280;15333;50.010;20.020;2023-02-11T17:41:18;99785.44;;;2.14;100.00
28008;BME280;15333;50.010;20.020;2023-02-11T17:44:19;99796.84;;;2.16;100.00
28008;BME280;15333;50.010;20.020;2023-02-11T17:47:20;99804.59;;;2.22;100.00
28008;BME280;15333;50.010;20.020;2023-02-11T17:50:21;99782.66;;;2.20;100.00
28008;BME280;15333;50.010;20.020;2023-02-11T17:53:22;99770.25;;;2.22;100.00
28008;BME280;15333;50.010;20.020;2023-02-11T17:56:23;99778.28;;;2.19;100.00